createdAt,value
2024-01-29T00:05:42.087Z,17.4
2024-01-29T00:11:39.514Z,17.4
2024-01-29T00:17:34.337Z,17.4
2024-01-29T00:23:29.377Z,17.4
2024-01-29T00:29:23.551Z,17.4
2024-01-29T00:35:06.446Z,17.4
2024-01-29T00:41:03.820Z,17.4
2024-01-29T00:46:57.491Z,17.4
2024-01-29T00:52:45.131Z,17.4
2024-01-29T00:58:39.449Z,17.4
2024-01-29T01:04:39.928Z,17.4
2024-01-29T01:10:35.621Z,17.3
2024-01-29T01:16:29.315Z,17.4
2024-01-29T01:22:09.644Z,17.3
2024-01-29T01:28:03.815Z,17.3
2024-01-29T01:33:58.586Z,17.3
2024-01-29T01:39:53.214Z,17.3
2024-01-29T01:45:50.013Z,17.3
2024-01-29T01:51:52.724Z,17.3
2024-01-29T01:57:46.999Z,17.3
2024-01-29T02:03:45.291Z,17.3
2024-01-29T02:09:40.958Z,17.3
2024-01-29T02:15:34.724Z,17.4
2024-01-29T02:21:30.054Z,17.4
2024-01-29T02:27:24.280Z,17.4
2024-01-29T02:33:20.413Z,17.7
2024-01-29T02:39:15.395Z,18.1
2024-01-29T02:50:50.603Z,19.3
2024-01-29T02:56:44.673Z,20.1
2024-01-29T03:02:39.034Z,21
2024-01-29T03:08:38.873Z,22
2024-01-29T03:14:32.683Z,23
2024-01-29T03:20:15.026Z,23.9
2024-01-29T03:26:12.530Z,24.9
2024-01-29T03:32:06.432Z,25.9
2024-01-29T03:38:01.021Z,26.6
2024-01-29T03:43:39.871Z,27
2024-01-29T03:49:34.478Z,27.3
2024-01-29T03:55:31.937Z,27.5
2024-01-29T04:01:28.609Z,27.6
2024-01-29T04:07:10.102Z,27.6
2024-01-29T04:13:03.879Z,27.7
2024-01-29T04:19:04.130Z,27.8
2024-01-29T04:24:59.726Z,27.8
2024-01-29T04:30:39.783Z,27.8
2024-01-29T04:36:36.102Z,27.8
2024-01-29T04:42:30.928Z,27.8
2024-01-29T05:21:41.453Z,27.8
2024-01-29T05:27:38.664Z,27.8
2024-01-29T05:39:06.531Z,27.8
2024-01-29T05:44:44.908Z,27.8
2024-01-29T05:50:24.698Z,27.8
2024-01-29T05:56:18.868Z,27.8
2024-01-29T06:01:58.232Z,27.8
2024-01-29T06:07:39.224Z,27.8
2024-01-29T06:13:22.111Z,27.8
2024-01-29T06:19:01.076Z,27.8
2024-01-29T06:25:22.040Z,27.7
2024-01-29T06:31:04.012Z,27.7
2024-01-29T06:37:01.712Z,27.7
2024-01-29T06:42:56.000Z,27.6
2024-01-29T06:48:52.626Z,27.6
2024-01-29T06:54:47.936Z,27.6
2024-01-29T07:00:41.915Z,27.6
2024-01-29T07:06:42.227Z,27.6
2024-01-29T07:12:37.253Z,27.6
2024-01-29T07:18:32.060Z,27.5
2024-01-29T07:24:27.905Z,27.5
2024-01-29T07:30:08.708Z,27.4
2024-01-29T07:36:04.484Z,27.4
2024-01-29T07:42:01.518Z,27.4
2024-01-29T07:47:56.173Z,27.4
2024-01-29T07:53:53.073Z,27.4
2024-01-29T07:59:48.333Z,27.4
2024-01-29T08:05:45.373Z,27.4
2024-01-29T08:11:40.868Z,27.3
2024-01-29T08:17:35.730Z,27.3
2024-01-29T08:23:36.945Z,27.3
2024-01-29T08:29:31.316Z,27.3
2024-01-29T08:35:28.444Z,27.3
2024-01-29T08:41:23.335Z,27.3
2024-01-29T08:47:20.241Z,27.2
2024-01-29T08:53:18.498Z,27.2
2024-01-29T08:59:16.084Z,27.2
2024-01-29T09:05:11.800Z,27.1
2024-01-29T09:11:18.350Z,27.1
2024-01-29T09:17:12.066Z,27.1
2024-01-29T09:22:53.178Z,27
2024-01-29T09:28:48.770Z,27
2024-01-29T09:34:58.092Z,27
2024-01-29T09:40:52.193Z,26.8
2024-01-29T09:46:49.221Z,26.6
2024-01-29T09:52:16.554Z,26.6
2024-01-29T09:58:13.939Z,26.6
2024-01-29T10:04:11.172Z,26.6
2024-01-29T10:09:51.571Z,26.6
2024-01-29T10:15:45.724Z,26.6
2024-01-29T10:21:41.205Z,26.8
2024-01-29T10:27:21.570Z,26.9
2024-01-29T10:32:45.974Z,27.1
2024-01-29T10:37:57.099Z,27.4
2024-01-29T10:43:58.536Z,27.9
2024-01-29T10:49:38.263Z,28.4
2024-01-29T10:55:19.418Z,28.9
2024-01-29T11:00:59.363Z,29.1
2024-01-29T11:06:50.070Z,29.1
2024-01-29T11:12:31.982Z,29.2
2024-01-29T11:18:12.280Z,29.3
2024-01-29T11:24:14.701Z,29.3
2024-01-29T11:29:53.718Z,29.3
2024-01-29T11:36:04.827Z,29.4
2024-01-29T11:41:59.262Z,29.3
2024-01-29T11:47:56.722Z,29.4
2024-01-29T11:54:05.687Z,29.3
2024-01-29T11:59:47.981Z,29.4
2024-01-29T12:05:27.941Z,29.3
2024-01-29T12:11:26.755Z,29.3
2024-01-29T12:17:21.170Z,29.3
2024-01-29T12:23:18.652Z,29.3
2024-01-29T12:29:15.254Z,29.3
2024-01-29T12:40:54.846Z,29.3
2024-01-29T12:46:48.942Z,29.3
2024-01-29T12:52:45.269Z,29.3
2024-01-29T12:58:24.464Z,29.2
2024-01-29T13:04:10.059Z,29.1
2024-01-29T13:10:10.021Z,29.1
2024-01-29T13:16:04.723Z,29.1
2024-01-29T13:22:00.426Z,29.1
2024-01-29T13:27:41.813Z,29.1
2024-01-29T13:33:39.571Z,29.1
2024-01-29T13:39:20.254Z,29.1
2024-01-29T13:45:18.891Z,29.1
2024-01-29T13:51:15.081Z,29
2024-01-29T13:57:11.558Z,29
2024-01-29T14:03:06.582Z,28.9
2024-01-29T14:09:04.117Z,29
2024-01-29T14:15:13.605Z,28.9
2024-01-29T14:21:10.630Z,28.9
2024-01-29T14:27:05.529Z,28.9
2024-01-29T14:33:04.252Z,28.9
2024-01-29T14:39:02.200Z,28.9
2024-01-29T14:44:58.238Z,28.8
2024-01-29T14:50:56.532Z,28.8
2024-01-29T14:56:51.962Z,28.8
2024-01-29T15:02:49.315Z,28.8
2024-01-29T15:08:47.656Z,28.8
2024-01-29T15:14:42.532Z,28.8
2024-01-29T15:20:40.570Z,28.8
2024-01-29T15:26:38.181Z,28.8
2024-01-29T15:32:33.220Z,28.8
2024-01-29T15:38:28.386Z,28.8
2024-01-29T15:44:24.837Z,28.8
2024-01-29T15:50:25.441Z,28.7
2024-01-29T15:56:22.660Z,28.7
2024-01-29T16:02:17.827Z,28.7
2024-01-29T16:08:12.673Z,28.7
2024-01-29T16:14:07.002Z,28.6
2024-01-29T16:20:06.363Z,28.6
2024-01-29T16:26:00.576Z,28.6
2024-01-29T16:31:55.919Z,28.5
2024-01-29T16:37:52.654Z,28.5
2024-01-29T16:43:50.395Z,28.4
2024-01-29T16:49:45.527Z,28.3
2024-01-29T16:55:41.030Z,27.9
2024-01-29T17:01:37.619Z,27.4
2024-01-29T17:07:33.939Z,27.2
2024-01-29T17:13:31.463Z,27.3
2024-01-29T17:19:30.394Z,27.3
2024-01-29T17:25:25.434Z,27.1
2024-01-29T17:31:19.381Z,27.1
2024-01-29T17:37:16.604Z,27
2024-01-29T17:43:10.779Z,26.9
2024-01-29T17:49:07.524Z,26.8
2024-01-29T17:55:05.569Z,26.6
2024-01-29T18:01:00.467Z,26.5
2024-01-29T18:06:56.076Z,26.4
2024-01-29T18:12:34.878Z,26.4
2024-01-29T18:18:00.982Z,26.4
2024-01-29T18:29:37.669Z,26.3
2024-01-29T18:35:32.588Z,26.3
2024-01-29T18:41:26.969Z,26.2
2024-01-29T18:47:24.552Z,26.1
2024-01-29T18:53:19.651Z,26.1
2024-01-29T18:59:14.686Z,25.9
2024-01-29T19:05:13.891Z,25.8
2024-01-29T19:11:12.115Z,25.9
2024-01-29T19:17:09.915Z,25.6
2024-01-29T19:22:50.014Z,25.1
2024-01-29T19:28:28.614Z,24.4
2024-01-29T19:34:08.240Z,23.7
2024-01-29T19:40:04.303Z,23
2024-01-29T19:45:58.590Z,22.3
2024-01-29T19:51:56.431Z,21.7
2024-01-29T19:57:50.792Z,21.2
2024-01-29T20:03:46.325Z,20.8
2024-01-29T20:09:43.325Z,20.4
2024-01-29T20:15:38.396Z,20.1
2024-01-29T20:21:34.564Z,19.9
2024-01-29T20:27:28.921Z,19.7
2024-01-29T20:33:25.037Z,19.6
2024-01-29T20:39:22.047Z,19.4
2024-01-29T20:45:35.490Z,19.3
2024-01-29T20:51:17.050Z,19.1
2024-01-29T20:57:23.368Z,18.9
2024-01-29T21:03:18.423Z,18.8
2024-01-29T21:14:56.918Z,18.6
2024-01-29T21:20:51.900Z,18.4
2024-01-29T21:26:46.942Z,18.4
2024-01-29T21:32:43.537Z,18.3
2024-01-29T21:38:38.118Z,18.2
2024-01-29T21:44:16.880Z,18.2
2024-01-29T21:50:12.388Z,18.1
2024-01-29T21:56:07.008Z,18.1
2024-01-29T22:02:04.325Z,18.1
2024-01-29T22:07:43.749Z,18
2024-01-29T22:13:23.272Z,18
2024-01-29T22:19:17.671Z,17.9
2024-01-29T22:24:57.552Z,17.9
2024-01-29T22:30:55.084Z,17.9
2024-01-29T22:36:49.883Z,17.9
2024-01-29T22:42:28.979Z,17.9
2024-01-29T22:48:23.493Z,17.9
2024-01-29T22:54:05.033Z,17.9
2024-01-29T22:59:43.750Z,17.8
2024-01-29T23:05:41.328Z,17.8
2024-01-29T23:11:36.114Z,17.8
2024-01-29T23:17:29.762Z,17.8
2024-01-29T23:23:10.537Z,17.8
2024-01-29T23:29:06.262Z,17.8
2024-01-29T23:35:01.296Z,17.8
2024-01-29T23:40:55.297Z,17.8
2024-01-29T23:46:49.000Z,17.8
2024-01-29T23:52:12.376Z,17.8
2024-01-29T23:57:51.701Z,17.8
